sensor_id;sensor_type;location;lat;lon;timestamp;pressure;altitude;pressure_sealevel;temperature;humidity
22830;BME280;11581;51.250;6.778;2023-04-24T00:02:03;99728.31;;;14.37;58.92
22830;BME280;11581;51.250;6.778;2023-04-24T00:04:32;99747.47;;;14.34;59.10
22830;BME280;11581;51.250;6.778;2023-04-24T00:06:58;99545.00;;;13.28;59.19
22830;BME280;11581;51.250;6.778;2023-04-24T00:09:25;99710.72;;;14.28;59.21
22830;BME280;11581;51.250;6.778;2023-04-24T00:11:52;99727.19;;;14.25;58.99
22830;BME280;11581;51.250;6.778;2023-04-24T00:14:18;99551.91;;;13.16;58.89
22830;BME280;11581;51.250;6.778;2023-04-24T00:16:45;99721.13;;;14.17;59.01
22830;BME280;11581;51.250;6.778;2023-04-24T00:19:11;99721.69;;;14.12;58.87
22830;BME280;11581;51.250;6.778;2023-04-24T00:21:38;99663.56;;;13.64;58.92
22830;BME280;11581;51.250;6.778;2023-04-24T00:24:04;99723.25;;;14.00;59.04
22830;BME280;11581;51.250;6.778;2023-04-24T00:26:31;99715.78;;;13.96;59.11
22830;BME280;11581;51.250;6.778;2023-04-24T00:28:57;99724.81;;;13.88;59.12
22830;BME280;11581;51.250;6.778;2023-04-24T00:31:25;99728.06;;;13.84;59.11
22830;BME280;11581;51.250;6.778;2023-04-24T00:33:52;99704.66;;;13.50;59.08
22830;BME280;11581;51.250;6.778;2023-04-24T00:36:18;99733.50;;;13.69;59.04
22830;BME280;11581;51.250;6.778;2023-04-24T00:38:46;99738.19;;;13.67;59.35
22830;BME280;11581;51.250;6.778;2023-04-24T00:41:12;99743.09;;;13.64;59.57
22830;BME280;11581;51.250;6.778;2023-04-24T00:43:39;99740.81;;;13.61;59.59
22830;BME280;11581;51.250;6.778;2023-04-24T00:46:05;99742.66;;;13.60;59.81
22830;BME280;11581;51.250;6.778;2023-04-24T00:48:32;99677.13;;;13.20;59.94
22830;BME280;11581;51.250;6.778;2023-04-24T00:50:59;99737.69;;;13.57;60.01
22830;BME280;11581;51.250;6.778;2023-04-24T00:53:25;99734.81;;;13.59;60.44
22830;BME280;11581;51.250;6.778;2023-04-24T00:55:52;99680.91;;;13.26;60.13
22830;BME280;11581;51.250;6.778;2023-04-24T00:58:19;99708.09;;;13.44;60.28
22830;BME280;11581;51.250;6.778;2023-04-24T01:00:46;99731.56;;;13.63;60.44
22830;BME280;11581;51.250;6.778;2023-04-24T01:03:15;99735.72;;;13.66;60.29
22830;BME280;11581;51.250;6.778;2023-04-24T01:05:42;99736.16;;;13.69;60.32
22830;BME280;11581;51.250;6.778;2023-04-24T01:08:08;99725.44;;;13.69;60.49
22830;BME280;11581;51.250;6.778;2023-04-24T01:10:36;99727.09;;;13.70;59.93
22830;BME280;11581;51.250;6.778;2023-04-24T01:13:02;99726.06;;;13.71;59.84
22830;BME280;11581;51.250;6.778;2023-04-24T01:15:29;99728.75;;;13.71;59.72
22830;BME280;11581;51.250;6.778;2023-04-24T01:17:56;99711.09;;;13.56;59.86
22830;BME280;11581;51.250;6.778;2023-04-24T01:20:23;99737.16;;;13.68;59.40
22830;BME280;11581;51.250;6.778;2023-04-24T01:22:54;99742.28;;;13.63;58.89
22830;BME280;11581;51.250;6.778;2023-04-24T01:25:22;99723.25;;;13.58;59.06
22830;BME280;11581;51.250;6.778;2023-04-24T01:27:49;99636.34;;;12.83;58.96
22830;BME280;11581;51.250;6.778;2023-04-24T01:30:16;99729.69;;;13.42;59.16
22830;BME280;11581;51.250;6.778;2023-04-24T01:32:44;99724.66;;;13.33;59.16
22830;BME280;11581;51.250;6.778;2023-04-24T01:35:10;99708.84;;;13.17;59.15
22830;BME280;11581;51.250;6.778;2023-04-24T01:37:37;99709.97;;;13.08;59.52
22830;BME280;11581;51.250;6.778;2023-04-24T01:40:05;99721.03;;;13.05;59.56
22830;BME280;11581;51.250;6.778;2023-04-24T01:42:34;99725.63;;;12.96;59.61
22830;BME280;11581;51.250;6.778;2023-04-24T01:45:02;99721.59;;;12.86;59.91
22830;BME280;11581;51.250;6.778;2023-04-24T01:47:31;99694.50;;;12.60;60.26
22830;BME280;11581;51.250;6.778;2023-04-24T01:49:58;99620.25;;;12.04;60.52
22830;BME280;11581;51.250;6.778;2023-04-24T01:52:24;99637.88;;;12.13;60.64
22830;BME280;11581;51.250;6.778;2023-04-24T01:54:52;99687.94;;;12.33;61.12
22830;BME280;11581;51.250;6.778;2023-04-24T01:57:22;99728.91;;;12.48;61.42
22830;BME280;11581;51.250;6.778;2023-04-24T01:59:48;99733.78;;;12.45;61.60
22830;BME280;11581;51.250;6.778;2023-04-24T02:02:15;99731.47;;;12.42;61.96
22830;BME280;11581;51.250;6.778;2023-04-24T02:04:42;99416.63;;;10.40;62.13
22830;BME280;11581;51.250;6.778;2023-04-24T02:07:08;99692.66;;;12.17;62.43
22830;BME280;11581;51.250;6.778;2023-04-24T02:09:35;99725.47;;;12.40;62.64
22830;BME280;11581;51.250;6.778;2023-04-24T02:12:01;99646.59;;;11.92;62.39
22830;BME280;11581;51.250;6.778;2023-04-24T02:14:28;99742.16;;;12.42;62.92
22830;BME280;11581;51.250;6.778;2023-04-24T02:16:54;99725.94;;;12.43;62.80
22830;BME280;11581;51.250;6.778;2023-04-24T02:19:21;99723.06;;;12.45;62.83
22830;BME280;11581;51.250;6.778;2023-04-24T02:21:49;99708.59;;;12.39;63.01
22830;BME280;11581;51.250;6.778;2023-04-24T02:24:16;99726.41;;;12.47;63.02
22830;BME280;11581;51.250;6.778;2023-04-24T02:26:42;99580.97;;;11.61;62.72
22830;BME280;11581;51.250;6.778;2023-04-24T02:29:09;99718.00;;;12.50;62.93
22830;BME280;11581;51.250;6.778;2023-04-24T02:31:35;99704.53;;;12.43;62.85
22830;BME280;11581;51.250;6.778;2023-04-24T02:34:02;99726.47;;;12.53;63.08
22830;BME280;11581;51.250;6.778;2023-04-24T02:36:28;99643.50;;;12.03;63.14
22830;BME280;11581;51.250;6.778;2023-04-24T02:38:55;99720.75;;;12.56;63.19
22830;BME280;11581;51.250;6.778;2023-04-24T02:41:21;99724.94;;;12.59;63.41
22830;BME280;11581;51.250;6.778;2023-04-24T02:43:48;99693.03;;;12.43;63.17
22830;BME280;11581;51.250;6.778;2023-04-24T02:46:14;99734.88;;;12.65;63.33
22830;BME280;11581;51.250;6.778;2023-04-24T02:48:41;99727.50;;;12.67;63.19
22830;BME280;11581;51.250;6.778;2023-04-24T02:51:07;99737.19;;;12.68;63.08
22830;BME280;11581;51.250;6.778;2023-04-24T02:53:35;99733.31;;;12.70;63.20
22830;BME280;11581;51.250;6.778;2023-04-24T02:56:01;99736.63;;;12.72;62.74
22830;BME280;11581;51.250;6.778;2023-04-24T02:58:28;99732.97;;;12.73;63.04
22830;BME280;11581;51.250;6.778;2023-04-24T03:00:54;99738.13;;;12.75;63.16
22830;BME280;11581;51.250;6.778;2023-04-24T03:03:21;99718.56;;;12.60;63.10
22830;BME280;11581;51.250;6.778;2023-04-24T03:05:49;99738.69;;;12.70;63.08
22830;BME280;11581;51.250;6.778;2023-04-24T03:08:15;99718.81;;;12.65;63.08
22830;BME280;11581;51.250;6.778;2023-04-24T03:10:43;99742.88;;;12.79;63.00
22830;BME280;11581;51.250;6.778;2023-04-24T03:13:09;99738.38;;;12.80;62.82
22830;BME280;11581;51.250;6.778;2023-04-24T03:15:36;99752.41;;;12.82;63.01
22830;BME280;11581;51.250;6.778;2023-04-24T03:18:02;99756.94;;;12.81;62.84
22830;BME280;11581;51.250;6.778;2023-04-24T03:20:29;99749.75;;;12.82;62.65
22830;BME280;11581;51.250;6.778;2023-04-24T03:22:56;99741.72;;;12.82;63.16
22830;BME280;11581;51.250;6.778;2023-04-24T03:25:23;99755.91;;;12.82;62.78
22830;BME280;11581;51.250;6.778;2023-04-24T03:27:50;99678.72;;;12.36;62.62
22830;BME280;11581;51.250;6.778;2023-04-24T03:30:38;99758.56;;;12.82;62.63
22830;BME280;11581;51.250;6.778;2023-04-24T03:33:05;99744.03;;;12.70;62.66
22830;BME280;11581;51.250;6.778;2023-04-24T03:35:35;99732.84;;;12.67;62.89
22830;BME280;11581;51.250;6.778;2023-04-24T03:38:06;99755.72;;;12.84;62.68
22830;BME280;11581;51.250;6.778;2023-04-24T03:40:55;99752.03;;;12.85;62.87
22830;BME280;11581;51.250;6.778;2023-04-24T03:43:39;99711.56;;;12.59;62.69
22830;BME280;11581;51.250;6.778;2023-04-24T03:46:06;99752.03;;;12.85;62.72
22830;BME280;11581;51.250;6.778;2023-04-24T03:48:37;99753.69;;;12.86;62.55
22830;BME280;11581;51.250;6.778;2023-04-24T03:51:04;99764.41;;;12.86;62.69
22830;BME280;11581;51.250;6.778;2023-04-24T03:53:32;99763.56;;;12.85;62.47
22830;BME280;11581;51.250;6.778;2023-04-24T03:55:59;99712.47;;;12.51;62.43
22830;BME280;11581;51.250;6.778;2023-04-24T03:58:26;99724.16;;;12.65;62.57
22830;BME280;11581;51.250;6.778;2023-04-24T04:00:54;99762.38;;;12.88;62.49
22830;BME280;11581;51.250;6.778;2023-04-24T04:03:37;99753.31;;;12.89;62.36
22830;BME280;11581;51.250;6.778;2023-04-24T04:06:04;99716.63;;;12.54;62.48
22830;BME280;11581;51.250;6.778;2023-04-24T04:08:30;99734.78;;;12.73;62.29
22830;BME280;11581;51.250;6.778;2023-04-24T04:10:57;99672.56;;;12.35;62.26
22830;BME280;11581;51.250;6.778;2023-04-24T04:13:23;99762.38;;;12.88;62.56
22830;BME280;11581;51.250;6.778;2023-04-24T04:15:50;99761.44;;;12.81;62.51
22830;BME280;11581;51.250;6.778;2023-04-24T04:18:16;99756.44;;;12.78;62.29
22830;BME280;11581;51.250;6.778;2023-04-24T04:20:43;99789.13;;;12.88;62.27
22830;BME280;11581;51.250;6.778;2023-04-24T04:23:12;99749.63;;;12.75;62.33
22830;BME280;11581;51.250;6.778;2023-04-24T04:25:48;99748.06;;;12.66;62.32
22830;BME280;11581;51.250;6.778;2023-04-24T04:28:17;99711.56;;;12.44;62.32
22830;BME280;11581;51.250;6.778;2023-04-24T04:30:45;99705.09;;;12.39;62.25
22830;BME280;11581;51.250;6.778;2023-04-24T04:33:12;99779.53;;;12.79;62.23
22830;BME280;11581;51.250;6.778;2023-04-24T04:35:40;99782.59;;;12.76;62.29
22830;BME280;11581;51.250;6.778;2023-04-24T04:38:08;99739.03;;;12.53;62.41
22830;BME280;11581;51.250;6.778;2023-04-24T04:40:57;99775.75;;;12.73;62.21
22830;BME280;11581;51.250;6.778;2023-04-24T04:43:27;99747.31;;;12.43;62.56
22830;BME280;11581;51.250;6.778;2023-04-24T04:45:54;99751.56;;;12.52;62.60
22830;BME280;11581;51.250;6.778;2023-04-24T04:48:46;99801.00;;;12.71;62.83
22830;BME280;11581;51.250;6.778;2023-04-24T04:51:13;99805.75;;;12.69;62.84
22830;BME280;11581;51.250;6.778;2023-04-24T04:53:40;99780.81;;;12.54;63.35
22830;BME280;11581;51.250;6.778;2023-04-24T04:56:06;99807.75;;;12.67;63.36
22830;BME280;11581;51.250;6.778;2023-04-24T04:58:39;99783.66;;;12.52;63.44
22830;BME280;11581;51.250;6.778;2023-04-24T05:01:09;99804.34;;;12.58;63.86
22830;BME280;11581;51.250;6.778;2023-04-24T05:03:40;99805.25;;;12.51;64.17
22830;BME280;11581;51.250;6.778;2023-04-24T05:06:09;99800.97;;;12.42;64.66
22830;BME280;11581;51.250;6.778;2023-04-24T05:08:38;99808.91;;;12.35;64.93
22830;BME280;11581;51.250;6.778;2023-04-24T05:11:08;99782.19;;;12.13;65.18
22830;BME280;11581;51.250;6.778;2023-04-24T05:13:36;99803.88;;;12.18;65.28
22830;BME280;11581;51.250;6.778;2023-04-24T05:16:05;99604.22;;;10.92;65.13
22830;BME280;11581;51.250;6.778;2023-04-24T05:18:32;99802.19;;;12.02;65.55
22830;BME280;11581;51.250;6.778;2023-04-24T05:20:59;99795.78;;;11.89;65.80
22830;BME280;11581;51.250;6.778;2023-04-24T05:23:26;99806.09;;;11.92;66.03
22830;BME280;11581;51.250;6.778;2023-04-24T05:25:55;99800.91;;;11.68;66.18
22830;BME280;11581;51.250;6.778;2023-04-24T05:28:21;99724.25;;;11.23;66.34
22830;BME280;11581;51.250;6.778;2023-04-24T05:31:00;99752.41;;;11.33;66.46
22830;BME280;11581;51.250;6.778;2023-04-24T05:33:28;99762.06;;;11.34;67.12
22830;BME280;11581;51.250;6.778;2023-04-24T05:35:54;99757.94;;;11.24;67.53
22830;BME280;11581;51.250;6.778;2023-04-24T05:38:21;99766.13;;;11.22;68.01
22830;BME280;11581;51.250;6.778;2023-04-24T05:40:47;99684.06;;;10.63;68.04
22830;BME280;11581;51.250;6.778;2023-04-24T05:43:14;99793.41;;;11.32;68.46
22830;BME280;11581;51.250;6.778;2023-04-24T05:45:40;99772.16;;;11.16;68.66
22830;BME280;11581;51.250;6.778;2023-04-24T05:48:07;99816.75;;;11.38;68.60
22830;BME280;11581;51.250;6.778;2023-04-24T05:50:33;99784.84;;;11.14;68.92
22830;BME280;11581;51.250;6.778;2023-04-24T05:53:00;99710.66;;;10.71;68.86
22830;BME280;11581;51.250;6.778;2023-04-24T05:55:31;99819.94;;;11.34;68.91
22830;BME280;11581;51.250;6.778;2023-04-24T05:57:58;99828.78;;;11.34;69.15
22830;BME280;11581;51.250;6.778;2023-04-24T06:00:26;99765.72;;;11.03;69.17
22830;BME280;11581;51.250;6.778;2023-04-24T06:03:00;99814.44;;;11.35;69.44
22830;BME280;11581;51.250;6.778;2023-04-24T06:05:29;99847.47;;;11.34;69.50
22830;BME280;11581;51.250;6.778;2023-04-24T06:07:56;99828.13;;;11.32;69.65
22830;BME280;11581;51.250;6.778;2023-04-24T06:10:26;99821.31;;;11.30;69.52
22830;BME280;11581;51.250;6.778;2023-04-24T06:12:52;99823.50;;;11.26;69.73
22830;BME280;11581;51.250;6.778;2023-04-24T06:15:21;99809.50;;;11.24;69.91
22830;BME280;11581;51.250;6.778;2023-04-24T06:17:55;99815.00;;;11.23;70.03
22830;BME280;11581;51.250;6.778;2023-04-24T06:20:25;99816.81;;;11.22;70.36
22830;BME280;11581;51.250;6.778;2023-04-24T06:22:51;99818.69;;;11.22;70.52
22830;BME280;11581;51.250;6.778;2023-04-24T06:25:19;99761.66;;;10.84;70.59
22830;BME280;11581;51.250;6.778;2023-04-24T06:27:45;99814.84;;;11.16;70.48
22830;BME280;11581;51.250;6.778;2023-04-24T06:30:12;99760.97;;;10.82;70.48
22830;BME280;11581;51.250;6.778;2023-04-24T06:32:39;99822.16;;;11.22;70.62
22830;BME280;11581;51.250;6.778;2023-04-24T06:35:06;99827.50;;;11.22;70.78
22830;BME280;11581;51.250;6.778;2023-04-24T06:37:33;99697.47;;;10.39;70.63
22830;BME280;11581;51.250;6.778;2023-04-24T06:39:59;99753.53;;;10.70;70.82
22830;BME280;11581;51.250;6.778;2023-04-24T06:42:26;99829.69;;;11.19;71.02
22830;BME280;11581;51.250;6.778;2023-04-24T06:44:54;99826.38;;;11.17;71.37
22830;BME280;11581;51.250;6.778;2023-04-24T06:47:21;99835.38;;;11.16;71.52
22830;BME280;11581;51.250;6.778;2023-04-24T06:49:47;99830.03;;;11.16;71.85
22830;BME280;11581;51.250;6.778;2023-04-24T06:52:16;99829.19;;;11.15;71.93
22830;BME280;11581;51.250;6.778;2023-04-24T06:54:42;99836.19;;;11.16;72.25
22830;BME280;11581;51.250;6.778;2023-04-24T06:57:09;99798.50;;;10.81;72.38
22830;BME280;11581;51.250;6.778;2023-04-24T06:59:36;99837.03;;;11.17;72.42
22830;BME280;11581;51.250;6.778;2023-04-24T07:02:02;99837.88;;;11.17;72.60
22830;BME280;11581;51.250;6.778;2023-04-24T07:04:29;99838.69;;;11.18;72.90
22830;BME280;11581;51.250;6.778;2023-04-24T07:06:56;99698.97;;;10.34;73.24
22830;BME280;11581;51.250;6.778;2023-04-24T07:09:24;99839.19;;;11.21;73.66
22830;BME280;11581;51.250;6.778;2023-04-24T07:11:52;99842.53;;;11.23;73.66
22830;BME280;11581;51.250;6.778;2023-04-24T07:14:19;99826.16;;;11.26;73.66
22830;BME280;11581;51.250;6.778;2023-04-24T07:16:46;99835.84;;;11.27;73.66
22830;BME280;11581;51.250;6.778;2023-04-24T07:19:13;99840.16;;;11.28;73.41
22830;BME280;11581;51.250;6.778;2023-04-24T07:21:40;99836.47;;;11.29;73.35
22830;BME280;11581;51.250;6.778;2023-04-24T07:24:06;99830.16;;;11.22;73.20
22830;BME280;11581;51.250;6.778;2023-04-24T07:26:36;99807.22;;;11.05;73.24
22830;BME280;11581;51.250;6.778;2023-04-24T07:29:03;99830.22;;;11.14;73.46
22830;BME280;11581;51.250;6.778;2023-04-24T07:31:30;99850.19;;;11.26;73.39
22830;BME280;11581;51.250;6.778;2023-04-24T07:33:56;99778.69;;;10.75;73.04
22830;BME280;11581;51.250;6.778;2023-04-24T07:36:24;99869.22;;;11.23;72.69
22830;BME280;11581;51.250;6.778;2023-04-24T07:38:51;99865.22;;;11.19;72.50
22830;BME280;11581;51.250;6.778;2023-04-24T07:41:17;99884.22;;;11.16;72.44
22830;BME280;11581;51.250;6.778;2023-04-24T07:43:44;99872.25;;;11.12;72.21
22830;BME280;11581;51.250;6.778;2023-04-24T07:46:11;99778.72;;;10.51;71.59
22830;BME280;11581;51.250;6.778;2023-04-24T07:48:37;99779.09;;;10.40;71.28
22830;BME280;11581;51.250;6.778;2023-04-24T07:51:03;99881.66;;;10.92;71.60
22830;BME280;11581;51.250;6.778;2023-04-24T07:53:30;99873.69;;;10.84;71.37
22830;BME280;11581;51.250;6.778;2023-04-24T07:55:56;99781.78;;;10.16;71.57
22830;BME280;11581;51.250;6.778;2023-04-24T07:58:23;99872.00;;;10.67;71.87
22830;BME280;11581;51.250;6.778;2023-04-24T08:00:51;99897.03;;;10.58;72.03
22830;BME280;11581;51.250;6.778;2023-04-24T08:03:17;99838.41;;;10.18;72.19
22830;BME280;11581;51.250;6.778;2023-04-24T08:05:45;99896.03;;;10.43;72.71
22830;BME280;11581;51.250;6.778;2023-04-24T08:08:11;99801.72;;;9.80;72.85
22830;BME280;11581;51.250;6.778;2023-04-24T08:10:38;99692.19;;;9.11;73.23
22830;BME280;11581;51.250;6.778;2023-04-24T08:13:04;99894.72;;;10.23;73.78
22830;BME280;11581;51.250;6.778;2023-04-24T08:15:31;99926.16;;;10.28;74.28
22830;BME280;11581;51.250;6.778;2023-04-24T08:17:57;99933.34;;;10.27;74.21
22830;BME280;11581;51.250;6.778;2023-04-24T08:20:24;99931.69;;;10.26;74.55
22830;BME280;11581;51.250;6.778;2023-04-24T08:22:50;99906.34;;;10.14;74.66
22830;BME280;11581;51.250;6.778;2023-04-24T08:25:17;99930.69;;;10.27;75.24
22830;BME280;11581;51.250;6.778;2023-04-24T08:27:44;99918.03;;;10.21;75.37
22830;BME280;11581;51.250;6.778;2023-04-24T08:30:11;99938.34;;;10.30;75.65
22830;BME280;11581;51.250;6.778;2023-04-24T08:32:37;99941.66;;;10.32;75.96
22830;BME280;11581;51.250;6.778;2023-04-24T08:35:04;99946.66;;;10.35;76.22
22830;BME280;11581;51.250;6.778;2023-04-24T08:37:31;99955.03;;;10.40;76.67
22830;BME280;11581;51.250;6.778;2023-04-24T08:39:57;99958.00;;;10.45;76.60
22830;BME280;11581;51.250;6.778;2023-04-24T08:42:24;99946.34;;;10.38;76.95
22830;BME280;11581;51.250;6.778;2023-04-24T08:44:52;99940.69;;;10.33;77.08
22830;BME280;11581;51.250;6.778;2023-04-24T08:47:19;99977.34;;;10.63;77.44
22830;BME280;11581;51.250;6.778;2023-04-24T08:49:47;99997.03;;;10.70;77.65
22830;BME280;11581;51.250;6.778;2023-04-24T08:52:15;99962.03;;;10.65;77.62
22830;BME280;11581;51.250;6.778;2023-04-24T08:54:42;99946.34;;;10.54;77.70
22830;BME280;11581;51.250;6.778;2023-04-24T08:57:11;99989.69;;;10.88;77.29
22830;BME280;11581;51.250;6.778;2023-04-24T08:59:40;99926.34;;;10.58;77.24
22830;BME280;11581;51.250;6.778;2023-04-24T09:02:10;99982.69;;;10.71;76.82
22830;BME280;11581;51.250;6.778;2023-04-24T09:04:37;100012.53;;;10.99;76.73
22830;BME280;11581;51.250;6.778;2023-04-24T09:07:06;100024.72;;;11.01;76.72
22830;BME280;11581;51.250;6.778;2023-04-24T09:09:34;100011.84;;;10.89;76.57
22830;BME280;11581;51.250;6.778;2023-04-24T09:12:01;100044.72;;;11.05;76.43
22830;BME280;11581;51.250;6.778;2023-04-24T09:14:28;100044.53;;;11.07;76.23
22830;BME280;11581;51.250;6.778;2023-04-24T09:16:57;100066.72;;;11.07;75.98
22830;BME280;11581;51.250;6.778;2023-04-24T09:19:23;100063.06;;;11.08;76.15
22830;BME280;11581;51.250;6.778;2023-04-24T09:21:52;100057.38;;;11.03;76.03
22830;BME280;11581;51.250;6.778;2023-04-24T09:24:20;100016.53;;;10.79;76.10
22830;BME280;11581;51.250;6.778;2023-04-24T09:26:49;100077.06;;;11.10;76.26
22830;BME280;11581;51.250;6.778;2023-04-24T09:29:22;100087.41;;;11.05;76.15
22830;BME280;11581;51.250;6.778;2023-04-24T09:31:48;100056.88;;;10.84;76.06
22830;BME280;11581;51.250;6.778;2023-04-24T09:34:21;100110.59;;;11.13;76.34
22830;BME280;11581;51.250;6.778;2023-04-24T09:36:48;100069.03;;;10.86;76.41
22830;BME280;11581;51.250;6.778;2023-04-24T09:39:15;100128.78;;;11.17;76.43
22830;BME280;11581;51.250;6.778;2023-04-24T09:41:53;100131.44;;;11.17;76.55
22830;BME280;11581;51.250;6.778;2023-04-24T09:44:22;100131.13;;;11.20;76.44
22830;BME280;11581;51.250;6.778;2023-04-24T09:46:50;100137.09;;;11.22;76.64
22830;BME280;11581;51.250;6.778;2023-04-24T09:49:23;100135.28;;;11.07;76.71
22830;BME280;11581;51.250;6.778;2023-04-24T09:51:50;100145.47;;;11.27;76.80
22830;BME280;11581;51.250;6.778;2023-04-24T09:54:19;100152.13;;;11.31;77.01
22830;BME280;11581;51.250;6.778;2023-04-24T09:56:48;100169.47;;;11.35;77.37
22830;BME280;11581;51.250;6.778;2023-04-24T09:59:18;100162.50;;;11.43;77.87
22830;BME280;11581;51.250;6.778;2023-04-24T10:01:45;100167.81;;;11.51;78.11
22830;BME280;11581;51.250;6.778;2023-04-24T10:04:20;100178.50;;;11.59;78.15
22830;BME280;11581;51.250;6.778;2023-04-24T10:06:49;100181.88;;;11.69;78.13
22830;BME280;11581;51.250;6.778;2023-04-24T10:09:17;100184.69;;;11.75;77.75
22830;BME280;11581;51.250;6.778;2023-04-24T10:11:46;100176.00;;;11.73;77.54
22830;BME280;11581;51.250;6.778;2023-04-24T10:14:15;100191.53;;;11.86;77.43
22830;BME280;11581;51.250;6.778;2023-04-24T10:16:43;100192.88;;;11.90;77.11
22830;BME280;11581;51.250;6.778;2023-04-24T10:19:12;100181.19;;;11.83;77.02
22830;BME280;11581;51.250;6.778;2023-04-24T10:21:41;100145.78;;;11.57;76.91
22830;BME280;11581;51.250;6.778;2023-04-24T10:24:12;100208.06;;;11.97;76.87
22830;BME280;11581;51.250;6.778;2023-04-24T10:26:40;100212.38;;;11.98;76.71
22830;BME280;11581;51.250;6.778;2023-04-24T10:29:06;100204.22;;;12.00;76.62
22830;BME280;11581;51.250;6.778;2023-04-24T10:31:36;100227.28;;;12.01;76.34
22830;BME280;11581;51.250;6.778;2023-04-24T10:34:05;100213.75;;;11.94;76.22
22830;BME280;11581;51.250;6.778;2023-04-24T10:36:36;100223.94;;;11.99;76.00
22830;BME280;11581;51.250;6.778;2023-04-24T10:39:08;100231.25;;;11.97;75.49
22830;BME280;11581;51.250;6.778;2023-04-24T10:41:37;100226.25;;;11.94;75.38
22830;BME280;11581;51.250;6.778;2023-04-24T10:44:22;100235.63;;;11.90;75.43
22830;BME280;11581;51.250;6.778;2023-04-24T10:46:53;100246.47;;;11.88;75.39
22830;BME280;11581;51.250;6.778;2023-04-24T10:49:31;100248.66;;;11.85;75.16
22830;BME280;11581;51.250;6.778;2023-04-24T10:52:02;100247.31;;;11.81;75.46
22830;BME280;11581;51.250;6.778;2023-04-24T10:54:45;100255.50;;;11.79;75.90
22830;BME280;11581;51.250;6.778;2023-04-24T10:59:45;100260.84;;;11.79;76.59
22830;BME280;11581;51.250;6.778;2023-04-24T11:02:14;100266.69;;;11.83;77.26
22830;BME280;11581;51.250;6.778;2023-04-24T11:04:41;100274.84;;;11.89;78.56
22830;BME280;11581;51.250;6.778;2023-04-24T11:07:11;100274.38;;;12.02;80.12
22830;BME280;11581;51.250;6.778;2023-04-24T11:09:38;100258.00;;;12.05;81.44
22830;BME280;11581;51.250;6.778;2023-04-24T11:12:11;100274.31;;;12.42;81.70
22830;BME280;11581;51.250;6.778;2023-04-24T11:17:31;100276.53;;;12.85;77.26
22830;BME280;11581;51.250;6.778;2023-04-24T11:20:09;100293.03;;;12.96;75.59
22830;BME280;11581;51.250;6.778;2023-04-24T11:22:37;100258.16;;;12.74;75.21
22830;BME280;11581;51.250;6.778;2023-04-24T11:25:05;100303.91;;;13.03;74.06
22830;BME280;11581;51.250;6.778;2023-04-24T11:27:39;100306.94;;;13.00;72.29
22830;BME280;11581;51.250;6.778;2023-04-24T11:30:06;100301.88;;;12.97;72.98
22830;BME280;11581;51.250;6.778;2023-04-24T11:35:06;100315.97;;;12.91;71.55
22830;BME280;11581;51.250;6.778;2023-04-24T11:37:36;100311.31;;;12.85;72.89
22830;BME280;11581;51.250;6.778;2023-04-24T11:40:07;100324.66;;;12.93;73.71
22830;BME280;11581;51.250;6.778;2023-04-24T11:42:39;100325.00;;;12.98;73.12
22830;BME280;11581;51.250;6.778;2023-04-24T11:47:37;100302.94;;;13.04;75.75
22830;BME280;11581;51.250;6.778;2023-04-24T11:50:05;100279.28;;;13.07;74.49
22830;BME280;11581;51.250;6.778;2023-04-24T11:52:36;100311.25;;;13.39;72.72
22830;BME280;11581;51.250;6.778;2023-04-24T11:55:05;100331.38;;;13.66;73.11
22830;BME280;11581;51.250;6.778;2023-04-24T11:57:32;100304.94;;;13.63;72.03
22830;BME280;11581;51.250;6.778;2023-04-24T12:00:02;100333.28;;;13.80;71.44
22830;BME280;11581;51.250;6.778;2023-04-24T12:02:37;100321.94;;;13.78;70.64
22830;BME280;11581;51.250;6.778;2023-04-24T12:05:04;100336.13;;;13.79;70.50
22830;BME280;11581;51.250;6.778;2023-04-24T12:07:40;100282.13;;;13.44;68.55
22830;BME280;11581;51.250;6.778;2023-04-24T12:10:08;100355.03;;;13.85;69.14
22830;BME280;11581;51.250;6.778;2023-04-24T12:12:35;100309.00;;;13.59;68.83
22830;BME280;11581;51.250;6.778;2023-04-24T12:15:06;100351.03;;;13.81;67.25
22830;BME280;11581;51.250;6.778;2023-04-24T12:17:34;100358.88;;;13.83;69.24
22830;BME280;11581;51.250;6.778;2023-04-24T12:20:06;100287.84;;;13.64;67.55
22830;BME280;11581;51.250;6.778;2023-04-24T12:23:05;100364.50;;;13.96;65.85
22830;BME280;11581;51.250;6.778;2023-04-24T12:25:33;100359.63;;;13.99;68.03
22830;BME280;11581;51.250;6.778;2023-04-24T12:30:30;100307.06;;;13.90;67.63
22830;BME280;11581;51.250;6.778;2023-04-24T12:32:58;100366.16;;;14.27;67.17
22830;BME280;11581;51.250;6.778;2023-04-24T12:35:28;100335.25;;;14.09;66.16
22830;BME280;11581;51.250;6.778;2023-04-24T12:37:54;100367.97;;;14.49;67.13
22830;BME280;11581;51.250;6.778;2023-04-24T12:40:21;100383.44;;;14.62;66.16
22830;BME280;11581;51.250;6.778;2023-04-24T12:42:51;100383.47;;;14.76;65.56
22830;BME280;11581;51.250;6.778;2023-04-24T12:45:18;100382.28;;;14.93;65.65
22830;BME280;11581;51.250;6.778;2023-04-24T12:47:45;100384.59;;;15.11;65.78
22830;BME280;11581;51.250;6.778;2023-04-24T12:50:14;100396.25;;;15.32;65.15
22830;BME280;11581;51.250;6.778;2023-04-24T12:52:42;100378.00;;;15.57;64.87
22830;BME280;11581;51.250;6.778;2023-04-24T12:55:09;100334.28;;;15.48;63.95
22830;BME280;11581;51.250;6.778;2023-04-24T12:57:38;100375.53;;;15.91;62.44
22830;BME280;11581;51.250;6.778;2023-04-24T13:00:06;100381.13;;;16.11;60.17
22830;BME280;11581;51.250;6.778;2023-04-24T13:02:33;100332.81;;;16.03;60.21
22830;BME280;11581;51.250;6.778;2023-04-24T13:05:01;100387.00;;;16.42;59.34
22830;BME280;11581;51.250;6.778;2023-04-24T13:07:27;100377.53;;;16.46;58.84
22830;BME280;11581;51.250;6.778;2023-04-24T13:09:55;100343.97;;;16.21;57.85
22830;BME280;11581;51.250;6.778;2023-04-24T13:12:22;100372.16;;;16.46;58.36
22830;BME280;11581;51.250;6.778;2023-04-24T13:14:50;100391.75;;;16.61;58.30
22830;BME280;11581;51.250;6.778;2023-04-24T13:17:17;100392.00;;;16.66;57.83